Time;durP1;ratioP1;P1;durP2;ratioP2;P2;SDS_P1;SDS_P2;PMS_P1;PMS_P2;Temp;Humidity;BMP_temperature;BMP_pressure;BME280_temperature;BME280_humidity;BME280_pressure;Samples;Min_cycle;Max_cycle;Signal;HPM_P1;HPM_P2
2022/11/17 00:01:41;;;;;;;;;;;;;;;25.19;47.11;92671.47;4956074;28;7050;-62
2022/11/17 00:04:10;;;;;;;;;;;;;;;25.18;46.64;92661.78;4959778;28;7094;-62
2022/11/17 00:06:36;;;;;;;;;;;;;;;25.17;46.70;92643.78;4970106;28;6870;-61
2022/11/17 00:09:04;;;;;;;;;;;;;;;25.16;47.37;92614.81;4954760;28;8302;-62
2022/11/17 00:14:31;;;;;;;;;;;;;;;25.16;47.36;92603.81;4972260;28;7227;-61
2022/11/17 00:14:32;;;;;;;;;;;;;;;25.16;47.37;92617.56;4975802;28;7660;-61
2022/11/17 00:17:07;;;;;;;;;;;;;;;25.16;46.81;92628.59;4971613;28;8852;-62
2022/11/17 00:22:36;;;;;;;;;;;;;;;25.17;47.07;92610.78;4979109;28;8091;-62
2022/11/17 00:25:11;;;;;;;;;;;;;;;25.16;47.55;92599.06;4978252;28;7076;-62
2022/11/17 00:27:43;;;;;;;;;;;;;;;25.18;47.42;92593.75;4954344;28;7299;-61
2022/11/17 00:36:17;;;;;;;;;;;;;;;25.14;47.14;92598.13;4975593;28;7027;-62
2022/11/17 00:38:44;;;;;;;;;;;;;;;25.14;47.37;92584.38;4971933;28;7642;-61
2022/11/17 00:41:16;;;;;;;;;;;;;;;25.17;46.98;92591.50;4953663;28;9015;-62
2022/11/17 00:43:50;;;;;;;;;;;;;;;25.15;46.97;92592.06;4975868;28;7467;-62
2022/11/17 00:46:19;;;;;;;;;;;;;;;25.18;47.29;92610.25;4957727;28;7280;-62
2022/11/17 00:48:46;;;;;;;;;;;;;;;25.17;47.43;92613.53;4973975;28;8637;-61
2022/11/17 00:51:11;;;;;;;;;;;;;;;25.16;46.86;92612.81;4956109;28;8762;-61
2022/11/17 00:53:37;;;;;;;;;;;;;;;25.16;47.55;92609.31;4973006;28;7116;-61
2022/11/17 00:56:25;;;;;;;;;;;;;;;25.16;47.19;92601.81;4974693;28;7405;-62
2022/11/17 00:58:53;;;;;;;;;;;;;;;25.15;46.72;92605.84;4969864;28;7137;-61
2022/11/17 01:01:20;;;;;;;;;;;;;;;25.15;47.15;92616.84;4954383;28;7458;-61
2022/11/17 01:04:04;;;;;;;;;;;;;;;25.15;47.33;92619.59;4974974;28;8699;-61
2022/11/17 01:06:40;;;;;;;;;;;;;;;25.15;47.44;92616.09;4950506;28;7124;-61
2022/11/17 01:09:11;;;;;;;;;;;;;;;25.15;46.93;92610.59;4972345;28;7042;-61
2022/11/17 01:11:40;;;;;;;;;;;;;;;25.15;47.53;92605.84;4971692;28;7319;-61
2022/11/17 01:14:13;;;;;;;;;;;;;;;25.15;47.35;92616.09;4954620;28;7283;-60
2022/11/17 01:16:42;;;;;;;;;;;;;;;25.13;47.62;92610.41;4970733;28;7115;-60
2022/11/17 01:19:10;;;;;;;;;;;;;;;25.12;46.99;92608.97;4968916;28;9395;-60
2022/11/17 01:21:36;;;;;;;;;;;;;;;25.12;47.48;92600.72;4969974;28;7021;-60
2022/11/17 01:24:02;;;;;;;;;;;;;;;25.12;47.00;92595.22;4969818;28;8783;-60
2022/11/17 01:26:32;;;;;;;;;;;;;;;25.14;47.39;92581.63;4957194;28;9068;-60
2022/11/17 01:29:01;;;;;;;;;;;;;;;25.13;46.57;92563.66;4956342;28;8583;-60
2022/11/17 01:31:40;;;;;;;;;;;;;;;25.13;47.33;92553.38;4957149;28;9359;-60
2022/11/17 01:34:12;;;;;;;;;;;;;;;25.18;47.26;92537.97;4956140;28;7219;-61
2022/11/17 01:39:45;;;;;;;;;;;;;;;25.17;46.66;92531.72;4974151;28;9260;-61
2022/11/17 01:42:21;;;;;;;;;;;;;;;25.18;46.71;92535.22;4974540;28;7871;-61
2022/11/17 01:44:56;;;;;;;;;;;;;;;25.17;46.50;92534.47;4974382;28;7330;-61
2022/11/17 01:47:37;;;;;;;;;;;;;;;25.14;47.26;92532.81;4967415;28;7030;-61
2022/11/17 01:50:26;;;;;;;;;;;;;;;25.15;46.83;92511.56;4971682;28;7058;-61
2022/11/17 01:52:59;;;;;;;;;;;;;;;25.15;47.37;92503.31;4954729;28;7226;-61
2022/11/17 01:56:04;;;;;;;;;;;;;;;25.16;46.57;92488.28;4956791;28;7044;-60
2022/11/17 01:58:48;;;;;;;;;;;;;;;25.14;46.52;92463.34;4896788;29;7300;-61
2022/11/17 02:01:55;;;;;;;;;;;;;;;25.12;46.52;92452.16;4891877;29;7270;-60
2022/11/17 02:04:29;;;;;;;;;;;;;;;25.11;47.02;92428.66;4858203;29;9544;-60
2022/11/17 02:07:07;;;;;;;;;;;;;;;25.11;46.76;92410.16;4854388;29;9413;-61
2022/11/17 02:09:38;;;;;;;;;;;;;;;25.10;46.42;92399.72;4857530;29;7188;-60
2022/11/17 02:12:37;;;;;;;;;;;;;;;25.10;47.00;92399.72;4843292;29;7138;-61
2022/11/17 02:15:04;;;;;;;;;;;;;;;25.10;46.45;92377.72;4754458;30;7222;-60
2022/11/17 02:17:43;;;;;;;;;;;;;;;25.10;47.34;92366.72;4770058;30;7302;-61
2022/11/17 02:20:14;;;;;;;;;;;;;;;25.10;47.11;92364.66;4752183;30;9067;-60
2022/11/17 02:23:26;;;;;;;;;;;;;;;25.11;46.57;92343.41;4745958;30;9323;-61
2022/11/17 02:26:12;;;;;;;;;;;;;;;25.09;47.36;92319.22;4767783;30;7276;-61
2022/11/17 02:29:25;;;;;;;;;;;;;;;25.10;46.35;92311.69;4767272;30;9070;-61
2022/11/17 02:32:19;;;;;;;;;;;;;;;25.10;46.21;92311.69;4775246;29;7115;-61
2022/11/17 02:35:48;;;;;;;;;;;;;;;25.08;46.71;92345.25;4802878;29;7039;-60
2022/11/17 02:38:29;;;;;;;;;;;;;;;25.07;46.73;92363.03;4743354;30;10549;-60
2022/11/17 02:41:32;;;;;;;;;;;;;;;25.06;46.51;92386.31;4778349;29;7440;-60
2022/11/17 02:44:15;;;;;;;;;;;;;;;25.06;47.12;92399.34;4747523;30;7277;-61
2022/11/17 02:47:09;;;;;;;;;;;;;;;25.07;46.70;92412.56;5080186;27;7060;-59
2022/11/17 02:49:49;;;;;;;;;;;;;;;25.05;47.16;92442.63;5055036;28;9074;-60
2022/11/17 02:52:18;;;;;;;;;;;;;;;25.07;46.73;92444.81;5035162;28;7271;-60
2022/11/17 02:54:46;;;;;;;;;;;;;;;25.05;46.64;92452.91;5036594;28;7726;-59
2022/11/17 02:57:37;;;;;;;;;;;;;;;25.04;47.46;92463.16;5065375;28;8984;-60
2022/11/17 03:00:08;;;;;;;;;;;;;;;25.04;47.36;92463.16;5038161;28;7030;-60
2022/11/17 03:02:56;;;;;;;;;;;;;;;25.03;46.98;92460.97;5040276;28;6987;-59
2022/11/17 03:05:37;;;;;;;;;;;;;;;25.03;47.39;92467.22;5033741;28;7265;-59
2022/11/17 03:08:45;;;;;;;;;;;;;;;24.98;46.75;92476.38;5048576;28;7559;-59
2022/11/17 03:11:32;;;;;;;;;;;;;;;25.01;46.69;92469.03;5069828;28;7253;-60
2022/11/17 03:14:18;;;;;;;;;;;;;;;25.01;47.47;92480.06;5042258;28;8281;-59
2022/11/17 03:17:31;;;;;;;;;;;;;;;25.01;47.14;92485.56;5035049;28;7423;-61
2022/11/17 03:20:15;;;;;;;;;;;;;;;24.98;47.75;92487.38;5021543;28;7479;-61
2022/11/17 03:23:01;;;;;;;;;;;;;;;25.00;46.52;92467.56;5021668;28;8243;-62
2022/11/17 03:25:50;;;;;;;;;;;;;;;25.01;46.94;92458.03;5040706;28;8762;-61
2022/11/17 03:28:23;;;;;;;;;;;;;;;24.95;46.92;92447.22;5024400;28;7128;-61
2022/11/17 03:30:53;;;;;;;;;;;;;;;24.93;46.96;92454.56;5032085;28;7034;-61
2022/11/17 03:33:30;;;;;;;;;;;;;;;24.94;47.41;92459.53;5020026;28;7233;-61
2022/11/17 03:36:10;;;;;;;;;;;;;;;24.94;46.82;92472.53;5041687;28;9992;-61
2022/11/17 03:39:19;;;;;;;;;;;;;;;24.97;47.38;92496.19;5034293;28;7443;-61
2022/11/17 03:42:15;;;;;;;;;;;;;;;24.99;46.98;92499.13;4984856;28;7277;-61
2022/11/17 03:45:15;;;;;;;;;;;;;;;24.94;47.48;92478.03;4986255;28;7311;-60
2022/11/17 03:47:44;;;;;;;;;;;;;;;24.97;46.88;92468.69;4980480;28;7050;-60
2022/11/17 03:50:17;;;;;;;;;;;;;;;25.01;46.65;92469.03;4981959;28;7223;-61
2022/11/17 03:52:45;;;;;;;;;;;;;;;25.02;47.31;92454.00;4983304;28;7419;-61
2022/11/17 03:55:13;;;;;;;;;;;;;;;24.96;47.06;92461.72;4967611;28;8299;-61
2022/11/17 03:57:58;;;;;;;;;;;;;;;24.95;47.21;92457.47;4975678;28;9497;-61
2022/11/17 04:01:02;;;;;;;;;;;;;;;24.98;46.92;92439.88;4974872;28;7274;-61
2022/11/17 04:03:34;;;;;;;;;;;;;;;24.97;46.90;92444.66;4963278;28;9818;-61
2022/11/17 04:06:03;;;;;;;;;;;;;;;24.95;46.41;92449.22;4953708;28;7676;-61
2022/11/17 04:08:39;;;;;;;;;;;;;;;24.98;46.78;92456.38;4961526;28;7247;-61
2022/11/17 04:17:17;;;;;;;;;;;;;;;24.85;47.39;92432.59;4858490;29;7273;-61
2022/11/17 04:19:44;;;;;;;;;;;;;;;24.91;47.33;92418.63;4859302;29;7564;-61
2022/11/17 04:22:13;;;;;;;;;;;;;;;24.84;47.18;92427.66;4858598;29;9377;-61
2022/11/17 04:28:35;;;;;;;;;;;;;;;24.87;47.77;92401.78;4853723;29;8936;-61
2022/11/17 04:30:46;;;;;;;;;;;;;;;24.85;47.43;92418.84;4840005;29;6857;-61
2022/11/17 04:33:14;;;;;;;;;;;;;;;24.79;47.00;92410.06;4838786;29;7039;-61
2022/11/17 04:35:40;;;;;;;;;;;;;;;24.76;47.26;92405.66;4824441;29;9506;-61
2022/11/17 04:38:08;;;;;;;;;;;;;;;24.75;47.92;92400.72;4850408;29;7258;-61
2022/11/17 04:41:52;;;;;;;;;;;;;;;24.76;47.04;92424.16;4877830;29;7261;-61
2022/11/17 04:43:30;;;;;;;;;;;;;;;24.73;47.36;92420.47;4882530;29;9312;-61
2022/11/17 04:46:00;;;;;;;;;;;;;;;24.70;47.24;92430.56;4882805;29;9303;-61
2022/11/17 04:48:29;;;;;;;;;;;;;;;24.68;47.75;92426.91;4876833;29;7177;-61
2022/11/17 04:50:56;;;;;;;;;;;;;;;24.68;47.66;92416.63;4929912;28;7570;-61
2022/11/17 04:53:23;;;;;;;;;;;;;;;24.68;47.44;92419.38;4968920;28;9702;-61
2022/11/17 04:55:52;;;;;;;;;;;;;;;24.68;47.92;92427.63;4951291;28;7056;-61
2022/11/17 04:58:20;;;;;;;;;;;;;;;24.65;47.79;92430.75;4967692;28;7958;-61
2022/11/17 05:01:11;;;;;;;;;;;;;;;24.66;47.28;92446.69;4945397;28;7045;-61
2022/11/17 05:03:45;;;;;;;;;;;;;;;24.64;47.46;92438.25;5032594;28;7495;-61
2022/11/17 05:06:20;;;;;;;;;;;;;;;24.60;47.97;92437.88;5013758;28;9460;-61
2022/11/17 05:08:54;;;;;;;;;;;;;;;24.58;48.17;92453.47;5018193;28;7071;-61
2022/11/17 05:14:13;;;;;;;;;;;;;;;24.62;47.88;92457.31;5027517;28;7482;-61
2022/11/17 05:17:05;;;;;;;;;;;;;;;24.63;47.48;92455.31;5046016;28;8966;-61
2022/11/17 05:19:46;;;;;;;;;;;;;;;24.68;47.51;92459.88;5048472;28;7317;-61
2022/11/17 05:25:19;;;;;;;;;;;;;;;24.64;48.26;92462.28;5028538;28;7052;-61
2022/11/17 05:27:47;;;;;;;;;;;;;;;24.62;47.90;92449.06;5058269;28;9010;-61
2022/11/17 05:30:25;;;;;;;;;;;;;;;24.62;47.51;92454.56;5017956;28;7312;-61
2022/11/17 05:32:51;;;;;;;;;;;;;;;24.61;48.05;92450.38;5021103;28;7042;-61
2022/11/17 05:35:29;;;;;;;;;;;;;;;24.61;47.69;92447.63;5031183;28;7229;-61
2022/11/17 05:38:12;;;;;;;;;;;;;;;24.60;48.07;92450.88;5025719;28;7128;-61
2022/11/17 05:40:50;;;;;;;;;;;;;;;24.59;47.92;92447.44;5029786;28;7307;-61
2022/11/17 05:43:25;;;;;;;;;;;;;;;24.57;48.31;92444.50;5037964;28;7343;-61
2022/11/17 05:45:54;;;;;;;;;;;;;;;24.58;47.85;92450.72;5035514;28;7032;-61
2022/11/17 05:48:20;;;;;;;;;;;;;;;24.59;48.11;92449.44;5018391;28;7275;-61
2022/11/17 05:50:46;;;;;;;;;;;;;;;24.57;48.45;92452.75;5028818;28;7310;-61
2022/11/17 05:53:14;;;;;;;;;;;;;;;24.65;47.34;92447.97;5030683;28;8985;-61
2022/11/17 05:55:43;;;;;;;;;;;;;;;24.75;47.39;92447.44;5030533;28;7395;-61
2022/11/17 05:58:27;;;;;;;;;;;;;;;24.78;47.73;92427.09;5017796;28;7470;-61
2022/11/17 06:00:59;;;;;;;;;;;;;;;24.82;47.64;92438.44;5030994;28;7435;-61
2022/11/17 06:03:35;;;;;;;;;;;;;;;24.83;47.28;92442.66;5028135;28;7574;-61
2022/11/17 06:06:02;;;;;;;;;;;;;;;24.87;47.03;92459.53;5027126;28;10644;-61
2022/11/17 06:08:49;;;;;;;;;;;;;;;24.91;47.38;92448.88;5024307;28;7254;-61
2022/11/17 06:11:18;;;;;;;;;;;;;;;24.93;47.02;92451.81;5027774;28;8497;-61
2022/11/17 06:13:55;;;;;;;;;;;;;;;24.93;47.57;92446.31;5027040;28;8005;-61
2022/11/17 06:16:34;;;;;;;;;;;;;;;24.92;48.07;92461.34;5028953;28;7171;-61
2022/11/17 06:19:08;;;;;;;;;;;;;;;24.91;47.16;92470.88;5032681;28;7264;-61
2022/11/17 06:21:35;;;;;;;;;;;;;;;24.92;47.53;92459.34;5038291;28;7316;-61
2022/11/17 06:24:05;;;;;;;;;;;;;;;24.92;47.31;92458.59;5038150;28;7327;-62
2022/11/17 06:26:39;;;;;;;;;;;;;;;24.96;46.63;92450.72;5032322;28;7247;-62
2022/11/17 06:29:09;;;;;;;;;;;;;;;24.97;46.60;92461.16;5028164;28;7545;-61
2022/11/17 06:31:48;;;;;;;;;;;;;;;24.98;46.12;92475.66;5047275;28;8988;-61
2022/11/17 06:34:18;;;;;;;;;;;;;;;24.98;47.04;92464.63;5040223;28;9167;-61
2022/11/17 06:37:12;;;;;;;;;;;;;;;24.99;46.02;92472.34;5027113;28;9858;-61
2022/11/17 06:39:52;;;;;;;;;;;;;;;24.96;46.27;92472.72;4967033;28;7941;-62
2022/11/17 06:45:23;;;;;;;;;;;;;;;24.97;46.63;92460.44;4980805;28;7254;-62
2022/11/17 06:47:52;;;;;;;;;;;;;;;24.98;46.39;92465.38;4966745;28;7244;-62
2022/11/17 06:50:18;;;;;;;;;;;;;;;24.97;46.13;92480.41;4966254;28;9070;-62
2022/11/17 06:52:47;;;;;;;;;;;;;;;24.97;45.98;92485.19;4979885;28;8245;-62
2022/11/17 06:55:15;;;;;;;;;;;;;;;25.00;46.70;92478.56;4957652;28;9664;-62
2022/11/17 06:57:41;;;;;;;;;;;;;;;25.01;46.21;92486.25;4970178;28;7299;-62
2022/11/17 07:00:10;;;;;;;;;;;;;;;25.00;45.77;92478.56;4980437;28;9687;-62
2022/11/17 07:02:36;;;;;;;;;;;;;;;25.01;46.27;92486.25;4967433;28;9212;-62
2022/11/17 07:05:07;;;;;;;;;;;;;;;25.01;46.20;92491.75;4976123;28;7018;-62
2022/11/17 07:07:36;;;;;;;;;;;;;;;25.01;45.99;92480.06;4958255;28;8986;-61
2022/11/17 07:10:02;;;;;;;;;;;;;;;24.99;46.35;92482.63;4982231;28;8702;-62
2022/11/17 07:12:35;;;;;;;;;;;;;;;25.00;46.59;92468.31;4976388;28;7360;-61
2022/11/17 07:15:05;;;;;;;;;;;;;;;25.00;46.77;92457.31;4971988;28;7058;-61
2022/11/17 07:17:34;;;;;;;;;;;;;;;25.02;47.13;92459.50;5045943;28;7296;-61
2022/11/17 07:20:00;;;;;;;;;;;;;;;25.01;45.91;92469.03;5023340;28;9843;-61
2022/11/17 07:22:33;;;;;;;;;;;;;;;25.00;46.30;92473.06;5020720;28;7179;-61
2022/11/17 07:25:01;;;;;;;;;;;;;;;24.97;46.21;92463.91;5039555;28;7268;-61
2022/11/17 07:27:27;;;;;;;;;;;;;;;25.00;46.68;92468.31;5018382;28;7288;-61
2022/11/17 07:29:55;;;;;;;;;;;;;;;25.00;45.97;92462.06;5017995;28;6965;-61
2022/11/17 07:32:21;;;;;;;;;;;;;;;24.96;46.39;92473.44;5022777;28;9031;-61
2022/11/17 07:34:47;;;;;;;;;;;;;;;24.95;46.24;92466.47;5039841;28;7144;-61
2022/11/17 07:37:16;;;;;;;;;;;;;;;24.93;46.51;92458.03;5028818;28;7394;-61
2022/11/17 07:39:42;;;;;;;;;;;;;;;24.93;46.72;92457.31;5023820;28;7032;-61
2022/11/17 07:42:09;;;;;;;;;;;;;;;24.99;46.60;92466.13;5025545;28;7265;-61
2022/11/17 07:44:35;;;;;;;;;;;;;;;25.00;46.65;92475.81;5040866;28;7497;-61
2022/11/17 07:47:03;;;;;;;;;;;;;;;24.98;45.57;92470.88;5031635;28;7495;-61
2022/11/17 07:49:29;;;;;;;;;;;;;;;24.98;46.38;92472.91;5031703;28;9005;-61
2022/11/17 07:51:55;;;;;;;;;;;;;;;25.01;46.35;92469.03;5031117;28;7118;-61
2022/11/17 07:54:21;;;;;;;;;;;;;;;25.01;46.78;92475.25;5031264;28;8853;-61
2022/11/17 07:56:48;;;;;;;;;;;;;;;25.00;46.05;92473.81;5024868;28;7512;-61
2022/11/17 07:59:16;;;;;;;;;;;;;;;25.01;46.24;92496.56;5014555;28;7202;-61
2022/11/17 08:01:50;;;;;;;;;;;;;;;25.00;45.97;92490.31;5031725;28;7105;-61
2022/11/17 08:04:23;;;;;;;;;;;;;;;24.99;45.97;92472.34;5030133;28;7124;-61
2022/11/17 08:07:01;;;;;;;;;;;;;;;25.02;46.61;92481.50;5053782;28;7170;-61
2022/11/17 08:09:33;;;;;;;;;;;;;;;25.01;46.12;92497.25;5023393;28;9325;-61
2022/11/17 08:12:08;;;;;;;;;;;;;;;25.03;46.08;92493.97;5025833;28;7304;-61
2022/11/17 08:14:34;;;;;;;;;;;;;;;25.01;46.51;92496.56;5030638;28;7120;-61
2022/11/17 08:17:02;;;;;;;;;;;;;;;25.00;46.03;92493.06;5026743;28;7442;-61
2022/11/17 08:19:45;;;;;;;;;;;;;;;24.99;46.67;92507.38;5044317;28;7362;-61
2022/11/17 08:22:25;;;;;;;;;;;;;;;24.99;46.63;92499.84;5031202;28;7034;-61
2022/11/17 08:24:52;;;;;;;;;;;;;;;24.98;46.10;92503.88;5025205;28;7393;-61
2022/11/17 08:27:20;;;;;;;;;;;;;;;24.99;46.80;92499.84;5028109;28;7014;-61
2022/11/17 08:29:45;;;;;;;;;;;;;;;25.00;46.38;92495.06;5061051;28;7214;-61
2022/11/17 08:32:13;;;;;;;;;;;;;;;24.99;46.58;92496.38;5057744;28;8787;-61
2022/11/17 08:34:42;;;;;;;;;;;;;;;24.99;46.37;92501.88;5041608;28;7630;-61
2022/11/17 08:37:14;;;;;;;;;;;;;;;24.96;46.71;92500.94;5031026;28;8284;-61
2022/11/17 08:39:43;;;;;;;;;;;;;;;24.97;46.72;92504.44;5055916;28;6951;-61
2022/11/17 08:42:08;;;;;;;;;;;;;;;24.98;46.62;92505.91;5025330;28;7264;-60
2022/11/17 08:44:35;;;;;;;;;;;;;;;24.96;46.68;92502.97;5042453;28;6999;-61
2022/11/17 08:47:03;;;;;;;;;;;;;;;24.96;47.25;92513.97;5026295;28;7008;-61
2022/11/17 08:49:29;;;;;;;;;;;;;;;24.96;46.87;92522.22;5054802;28;7054;-61
2022/11/17 08:51:54;;;;;;;;;;;;;;;24.95;46.61;92531.75;5043701;28;9164;-61
2022/11/17 08:54:20;;;;;;;;;;;;;;;24.96;47.17;92527.72;5025773;28;8297;-61
2022/11/17 08:56:49;;;;;;;;;;;;;;;24.95;47.13;92521.47;5034855;28;7135;-61
2022/11/17 08:59:19;;;;;;;;;;;;;;;24.94;46.82;92539.28;5026164;28;7144;-61
2022/11/17 09:01:51;;;;;;;;;;;;;;;24.98;46.95;92541.66;5027084;28;9604;-61
2022/11/17 09:04:19;;;;;;;;;;;;;;;24.97;46.45;92551.19;5030953;28;7259;-60
2022/11/17 09:06:45;;;;;;;;;;;;;;;24.98;46.75;92549.91;5028148;28;7047;-61
2022/11/17 09:09:13;;;;;;;;;;;;;;;24.99;46.59;92556.88;5022785;28;8993;-61
2022/11/17 09:11:41;;;;;;;;;;;;;;;24.98;47.17;92558.16;5023189;28;7311;-61
2022/11/17 09:14:10;;;;;;;;;;;;;;;24.99;47.10;92554.84;5022559;28;8061;-61
2022/11/17 09:16:54;;;;;;;;;;;;;;;25.05;46.79;92557.44;5016044;28;6949;-61
2022/11/17 09:19:26;;;;;;;;;;;;;;;25.04;46.31;92562.19;5044187;28;7113;-61
2022/11/17 09:21:59;;;;;;;;;;;;;;;25.05;46.23;92563.66;5027113;28;7392;-61
2022/11/17 09:24:27;;;;;;;;;;;;;;;25.04;46.81;92559.44;5020314;28;7543;-61
2022/11/17 09:26:56;;;;;;;;;;;;;;;25.00;46.91;92572.09;5024306;28;7622;-61
2022/11/17 09:29:24;;;;;;;;;;;;;;;25.00;46.72;92572.09;5040817;28;8968;-61
2022/11/17 09:32:01;;;;;;;;;;;;;;;24.99;46.26;92574.09;5057779;28;7263;-61
2022/11/17 09:34:28;;;;;;;;;;;;;;;25.01;46.17;92560.53;5024086;28;9800;-61
2022/11/17 09:36:59;;;;;;;;;;;;;;;25.02;46.73;92575.00;5044725;28;7121;-61
2022/11/17 09:39:25;;;;;;;;;;;;;;;25.03;46.07;92577.25;5025700;28;7496;-61
2022/11/17 09:41:55;;;;;;;;;;;;;;;25.02;45.97;92575.00;5027093;28;8219;-61
2022/11/17 09:44:35;;;;;;;;;;;;;;;25.02;46.97;92573.00;5031332;28;7036;-61
2022/11/17 09:47:50;;;;;;;;;;;;;;;25.02;46.45;92588.78;5026259;28;9383;-62
2022/11/17 09:50:38;;;;;;;;;;;;;;;24.99;46.61;92582.34;4915006;28;7791;-61
2022/11/17 09:53:23;;;;;;;;;;;;;;;24.99;46.51;92584.38;4930715;29;9431;-61
2022/11/17 09:56:00;;;;;;;;;;;;;;;25.01;46.85;92584.56;4923639;29;8863;-61
2022/11/17 09:58:58;;;;;;;;;;;;;;;25.01;46.27;92595.56;4930998;29;7830;-61
2022/11/17 10:01:27;;;;;;;;;;;;;;;25.01;46.03;92592.81;4912845;29;7001;-61
2022/11/17 10:03:55;;;;;;;;;;;;;;;25.00;46.53;92588.59;4925356;29;7038;-61
2022/11/17 10:06:43;;;;;;;;;;;;;;;25.01;45.95;92596.28;4931184;29;9322;-61
2022/11/17 10:09:52;;;;;;;;;;;;;;;25.02;46.07;92592.25;4916797;29;9312;-61
2022/11/17 10:12:37;;;;;;;;;;;;;;;25.01;46.44;92601.06;4932151;29;7356;-61
2022/11/17 10:15:29;;;;;;;;;;;;;;;25.00;46.13;92599.59;4929932;29;7021;-61
2022/11/17 10:17:55;;;;;;;;;;;;;;;25.00;46.50;92602.34;4932888;29;8414;-61
2022/11/17 10:20:34;;;;;;;;;;;;;;;24.98;46.27;92596.66;4931530;29;7350;-61
2022/11/17 10:23:06;;;;;;;;;;;;;;;24.98;46.41;92591.91;4924345;29;7394;-61
2022/11/17 10:25:38;;;;;;;;;;;;;;;25.01;46.79;92599.03;4924304;29;7052;-61
2022/11/17 10:28:21;;;;;;;;;;;;;;;25.01;46.09;92590.06;5007047;28;7030;-61
2022/11/17 10:31:01;;;;;;;;;;;;;;;25.04;46.22;92597.19;5056358;28;7333;-62
2022/11/17 10:33:47;;;;;;;;;;;;;;;25.00;47.18;92592.06;5023977;28;9096;-61
2022/11/17 10:36:46;;;;;;;;;;;;;;;25.01;46.44;92590.06;5021192;28;10379;-62
2022/11/17 10:39:38;;;;;;;;;;;;;;;25.02;46.21;92586.75;5054529;28;9607;-61
2022/11/17 10:42:19;;;;;;;;;;;;;;;25.05;46.26;92582.91;5031986;28;7030;-61
2022/11/17 10:44:52;;;;;;;;;;;;;;;25.06;46.94;92586.38;5020786;28;7127;-61
2022/11/17 10:47:38;;;;;;;;;;;;;;;25.04;46.24;92578.69;5030424;28;7257;-61
2022/11/17 10:50:19;;;;;;;;;;;;;;;25.06;46.24;92586.38;5035784;28;7117;-61
2022/11/17 10:52:50;;;;;;;;;;;;;;;25.05;46.48;92584.94;5021066;28;7143;-61
2022/11/17 10:55:23;;;;;;;;;;;;;;;25.06;46.30;92591.88;5027430;28;7248;-61
2022/11/17 10:58:20;;;;;;;;;;;;;;;25.07;46.03;92598.88;5053037;28;8722;-61
2022/11/17 11:00:53;;;;;;;;;;;;;;;25.04;45.96;92599.94;4949563;29;9025;-61
2022/11/17 11:03:27;;;;;;;;;;;;;;;25.05;46.06;92606.94;4949695;29;7640;-61
2022/11/17 11:05:59;;;;;;;;;;;;;;;25.07;46.80;92598.88;4928190;29;7258;-61
2022/11/17 11:08:37;;;;;;;;;;;;;;;25.04;46.25;92572.44;4933830;28;7262;-61
2022/11/17 11:11:27;;;;;;;;;;;;;;;25.06;47.06;92564.38;4926369;28;7350;-61
2022/11/17 11:14:01;;;;;;;;;;;;;;;25.08;46.95;92572.81;4943013;28;7244;-60
2022/11/17 11:16:32;;;;;;;;;;;;;;;25.10;47.00;92562.72;4925374;28;7364;-60
2022/11/17 11:18:59;;;;;;;;;;;;;;;25.12;47.31;92551.91;4946050;28;7234;-61
2022/11/17 11:21:36;;;;;;;;;;;;;;;25.12;47.62;92551.19;4944273;28;8197;-61
2022/11/17 11:24:29;;;;;;;;;;;;;;;25.09;47.65;92553.03;4948176;28;8084;-61
2022/11/17 11:27:04;;;;;;;;;;;;;;;25.07;47.36;92546.59;4944117;28;9252;-61
2022/11/17 11:30:12;;;;;;;;;;;;;;;25.12;47.88;92538.16;4930441;28;7922;-60
2022/11/17 11:33:03;;;;;;;;;;;;;;;25.11;47.51;92527.69;4945374;28;8856;-60
2022/11/17 11:35:50;;;;;;;;;;;;;;;25.11;47.39;92535.97;4930487;28;7272;-60
2022/11/17 11:38:31;;;;;;;;;;;;;;;25.15;47.48;92537.06;5006745;28;7477;-61
2022/11/17 11:41:18;;;;;;;;;;;;;;;25.14;47.47;92549.34;5033611;28;7278;-61
2022/11/17 11:43:47;;;;;;;;;;;;;;;25.18;47.11;92557.97;5033920;28;7448;-61
2022/11/17 11:46:20;;;;;;;;;;;;;;;25.21;47.07;92554.09;5043463;28;8854;-60
2022/11/17 11:48:50;;;;;;;;;;;;;;;25.22;47.34;92543.84;5023021;28;7248;-61
2022/11/17 11:51:27;;;;;;;;;;;;;;;25.27;46.97;92535.38;5022482;28;7287;-61
2022/11/17 11:54:08;;;;;;;;;;;;;;;25.29;46.78;92535.56;5030946;28;9301;-61
2022/11/17 11:56:43;;;;;;;;;;;;;;;25.30;47.24;92530.78;5031292;28;7059;-62
2022/11/17 11:59:38;;;;;;;;;;;;;;;25.29;46.80;92543.81;5029345;28;8984;-61
2022/11/17 12:02:12;;;;;;;;;;;;;;;25.29;47.00;92552.06;5030414;28;9314;-62
2022/11/17 12:05:03;;;;;;;;;;;;;;;25.36;46.76;92556.09;5032674;28;7308;-62
2022/11/17 12:08:00;;;;;;;;;;;;;;;25.36;47.44;92547.84;5025701;28;8197;-61
2022/11/17 12:10:28;;;;;;;;;;;;;;;25.38;46.24;92556.28;5031590;28;9211;-61
2022/11/17 12:12:58;;;;;;;;;;;;;;;25.37;46.54;92544.53;5028793;28;7629;-61
2022/11/17 12:15:25;;;;;;;;;;;;;;;25.38;46.19;92553.53;5028125;28;7011;-61
2022/11/17 12:17:59;;;;;;;;;;;;;;;25.38;47.08;92548.03;5033853;28;7051;-61
2022/11/17 12:20:37;;;;;;;;;;;;;;;25.39;47.11;92546.75;5020331;28;7513;-61
2022/11/17 12:23:48;;;;;;;;;;;;;;;25.41;47.27;92555.16;5034835;28;9110;-61
2022/11/17 12:26:26;;;;;;;;;;;;;;;25.39;46.47;92546.75;5003753;28;8992;-61
2022/11/17 12:29:21;;;;;;;;;;;;;;;25.42;47.35;92540.16;4985466;28;7914;-62
2022/11/17 12:31:49;;;;;;;;;;;;;;;25.42;47.02;92545.66;4948648;28;7104;-62
2022/11/17 12:34:29;;;;;;;;;;;;;;;25.43;46.43;92547.84;4965737;28;7686;-61
2022/11/17 12:37:14;;;;;;;;;;;;;;;25.42;46.12;92551.19;4952452;28;7113;-61
2022/11/17 12:40:01;;;;;;;;;;;;;;;25.38;46.71;92559.75;4943676;28;7152;-61
2022/11/17 12:43:12;;;;;;;;;;;;;;;25.37;46.72;92555.56;4964411;28;7285;-61
2022/11/17 12:45:56;;;;;;;;;;;;;;;25.39;46.70;92560.50;4947506;28;7059;-61
2022/11/17 12:48:36;;;;;;;;;;;;;;;25.38;46.55;92556.28;4951091;28;7373;-61
2022/11/17 12:51:30;;;;;;;;;;;;;;;25.38;46.56;92565.25;4966998;28;8831;-61
2022/11/17 12:54:14;;;;;;;;;;;;;;;25.39;46.25;92569.50;4967101;28;7458;-61
2022/11/17 12:56:56;;;;;;;;;;;;;;;25.37;47.37;92563.81;4967843;28;7029;-61
2022/11/17 13:00:00;;;;;;;;;;;;;;;25.38;46.45;92564.56;4950859;28;7203;-61
2022/11/17 13:02:57;;;;;;;;;;;;;;;25.39;46.83;92560.50;4982691;28;7106;-61
2022/11/17 13:05:30;;;;;;;;;;;;;;;25.41;47.54;92557.94;4971263;28;9480;-61
2022/11/17 13:08:24;;;;;;;;;;;;;;;25.48;46.65;92548.94;4981307;28;8334;-61
2022/11/17 13:10:50;;;;;;;;;;;;;;;25.49;47.31;92546.94;5023047;28;7271;-62
2022/11/17 13:13:25;;;;;;;;;;;;;;;25.50;46.47;92545.63;5029273;28;8947;-61
2022/11/17 13:16:00;;;;;;;;;;;;;;;25.47;47.39;92536.47;5028432;28;7536;-61
2022/11/17 13:18:41;;;;;;;;;;;;;;;25.48;46.57;92535.19;5057340;28;7018;-61
2022/11/17 13:21:25;;;;;;;;;;;;;;;25.53;47.16;92515.00;5044267;28;7655;-61
2022/11/17 13:23:56;;;;;;;;;;;;;;;25.54;46.26;92515.72;5032506;28;7309;-61
2022/11/17 13:26:25;;;;;;;;;;;;;;;25.55;46.36;92523.44;5058056;28;9034;-61
2022/11/17 13:29:07;;;;;;;;;;;;;;;25.60;45.60;92511.47;5034794;28;7450;-62
2022/11/17 13:31:41;;;;;;;;;;;;;;;25.62;45.91;92497.88;5025835;28;8643;-62
2022/11/17 13:34:17;;;;;;;;;;;;;;;25.66;46.17;92505.78;5036128;28;9469;-62
2022/11/17 13:36:56;;;;;;;;;;;;;;;25.61;45.94;92509.47;5025070;28;6860;-62
2022/11/17 13:39:26;;;;;;;;;;;;;;;25.63;46.47;92509.63;5025764;28;7099;-62
2022/11/17 13:41:52;;;;;;;;;;;;;;;25.64;46.38;92522.13;5025154;28;9047;-61
2022/11/17 13:44:25;;;;;;;;;;;;;;;25.62;46.48;92517.16;5026695;28;7186;-61
2022/11/17 13:46:55;;;;;;;;;;;;;;;25.61;45.73;92526.72;5025145;28;7092;-61
2022/11/17 13:49:36;;;;;;;;;;;;;;;25.58;46.79;92519.56;5038030;28;7199;-61
2022/11/17 13:52:04;;;;;;;;;;;;;;;25.53;46.35;92531.53;5030583;28;7411;-61
2022/11/17 13:54:31;;;;;;;;;;;;;;;25.48;46.91;92532.44;5035671;28;8558;-61
2022/11/17 13:57:06;;;;;;;;;;;;;;;25.49;46.72;92527.66;5028116;28;9387;-61
2022/11/17 13:59:38;;;;;;;;;;;;;;;25.49;46.33;92528.38;5034069;28;7036;-62
2022/11/17 14:02:20;;;;;;;;;;;;;;;25.46;45.86;92535.00;5026115;28;7293;-62
2022/11/17 14:05:18;;;;;;;;;;;;;;;25.45;46.78;92527.31;5028208;28;9020;-60
2022/11/17 14:07:44;;;;;;;;;;;;;;;25.40;46.39;92521.41;5051836;28;7237;-61
2022/11/17 14:10:30;;;;;;;;;;;;;;;25.37;46.08;92530.78;5024726;28;7412;-61
2022/11/17 14:13:01;;;;;;;;;;;;;;;25.39;46.10;92538.47;5028387;28;8114;-61
2022/11/17 14:15:52;;;;;;;;;;;;;;;25.39;45.73;92521.97;5023175;28;7340;-61
2022/11/17 14:18:36;;;;;;;;;;;;;;;25.37;46.52;92516.28;5029479;28;7273;-61